sensor_id;sensor_type;location;lat;lon;timestamp;P1;durP1;ratioP1;P2;durP2;ratioP2
27977;SDS011;15314;49.248;6.968;2023-12-20T00:00:10;20.25;;;18.38;;
27977;SDS011;15314;49.248;6.968;2023-12-20T00:01:11;19.73;;;18.10;;
27977;SDS011;15314;49.248;6.968;2023-12-20T00:02:11;20.40;;;18.55;;
27977;SDS011;15314;49.248;6.968;2023-12-20T00:03:12;18.95;;;17.30;;
27977;SDS011;15314;49.248;6.968;2023-12-20T00:04:13;18.83;;;17.27;;
27977;SDS011;15314;49.248;6.968;2023-12-20T00:05:13;19.38;;;17.63;;
27977;SDS011;15314;49.248;6.968;2023-12-20T00:06:14;19.55;;;17.85;;
27977;SDS011;15314;49.248;6.968;2023-12-20T00:07:15;18.55;;;17.02;;
27977;SDS011;15314;49.248;6.968;2023-12-20T00:08:16;19.45;;;17.95;;
27977;SDS011;15314;49.248;6.968;2023-12-20T00:09:17;18.48;;;16.98;;
27977;SDS011;15314;49.248;6.968;2023-12-20T00:10:17;18.70;;;17.20;;
27977;SDS011;15314;49.248;6.968;2023-12-20T00:11:18;16.52;;;15.13;;
27977;SDS011;15314;49.248;6.968;2023-12-20T00:12:18;16.88;;;15.57;;
27977;SDS011;15314;49.248;6.968;2023-12-20T00:13:19;16.95;;;15.65;;
27977;SDS011;15314;49.248;6.968;2023-12-20T00:14:20;17.30;;;15.90;;
27977;SDS011;15314;49.248;6.968;2023-12-20T00:15:20;16.27;;;15.00;;
27977;SDS011;15314;49.248;6.968;2023-12-20T00:16:21;17.00;;;15.70;;
27977;SDS011;15314;49.248;6.968;2023-12-20T00:17:21;16.55;;;15.32;;
27977;SDS011;15314;49.248;6.968;2023-12-20T00:18:23;16.35;;;15.05;;
27977;SDS011;15314;49.248;6.968;2023-12-20T00:19:23;17.40;;;16.10;;
27977;SDS011;15314;49.248;6.968;2023-12-20T00:20:24;17.75;;;16.15;;
27977;SDS011;15314;49.248;6.968;2023-12-20T00:21:25;17.15;;;15.73;;
27977;SDS011;15314;49.248;6.968;2023-12-20T00:22:25;17.58;;;16.27;;
27977;SDS011;15314;49.248;6.968;2023-12-20T00:23:26;17.63;;;16.23;;
27977;SDS011;15314;49.248;6.968;2023-12-20T00:24:26;17.45;;;16.02;;
27977;SDS011;15314;49.248;6.968;2023-12-20T00:25:27;17.05;;;15.75;;
27977;SDS011;15314;49.248;6.968;2023-12-20T00:26:28;17.15;;;15.85;;
27977;SDS011;15314;49.248;6.968;2023-12-20T00:27:29;17.42;;;15.98;;
27977;SDS011;15314;49.248;6.968;2023-12-20T00:28:29;17.58;;;16.35;;
27977;SDS011;15314;49.248;6.968;2023-12-20T00:29:30;17.00;;;15.68;;
27977;SDS011;15314;49.248;6.968;2023-12-20T00:30:31;16.65;;;15.35;;
27977;SDS011;15314;49.248;6.968;2023-12-20T00:31:31;15.32;;;14.23;;
27977;SDS011;15314;49.248;6.968;2023-12-20T00:32:32;16.77;;;15.52;;
27977;SDS011;15314;49.248;6.968;2023-12-20T00:33:33;16.25;;;14.90;;
27977;SDS011;15314;49.248;6.968;2023-12-20T00:34:33;16.85;;;15.52;;
27977;SDS011;15314;49.248;6.968;2023-12-20T00:35:34;17.70;;;16.30;;
27977;SDS011;15314;49.248;6.968;2023-12-20T00:36:34;15.05;;;14.00;;
27977;SDS011;15314;49.248;6.968;2023-12-20T00:37:35;15.88;;;14.68;;
27977;SDS011;15314;49.248;6.968;2023-12-20T00:38:36;16.25;;;14.98;;
27977;SDS011;15314;49.248;6.968;2023-12-20T00:39:36;16.35;;;15.07;;
27977;SDS011;15314;49.248;6.968;2023-12-20T00:40:37;16.85;;;15.52;;
27977;SDS011;15314;49.248;6.968;2023-12-20T00:41:38;14.98;;;13.88;;
27977;SDS011;15314;49.248;6.968;2023-12-20T00:42:39;16.23;;;14.98;;
27977;SDS011;15314;49.248;6.968;2023-12-20T00:43:39;15.02;;;13.95;;
27977;SDS011;15314;49.248;6.968;2023-12-20T00:44:40;17.05;;;15.60;;
27977;SDS011;15314;49.248;6.968;2023-12-20T00:45:40;16.27;;;15.10;;
27977;SDS011;15314;49.248;6.968;2023-12-20T00:46:41;16.50;;;15.20;;
27977;SDS011;15314;49.248;6.968;2023-12-20T00:47:42;16.80;;;15.60;;
27977;SDS011;15314;49.248;6.968;2023-12-20T00:48:42;17.30;;;16.00;;
27977;SDS011;15314;49.248;6.968;2023-12-20T00:49:45;17.27;;;15.95;;
27977;SDS011;15314;49.248;6.968;2023-12-20T00:50:46;15.77;;;14.68;;
27977;SDS011;15314;49.248;6.968;2023-12-20T00:51:46;16.13;;;14.93;;
27977;SDS011;15314;49.248;6.968;2023-12-20T00:52:48;16.83;;;15.32;;
27977;SDS011;15314;49.248;6.968;2023-12-20T00:53:49;17.02;;;15.63;;
27977;SDS011;15314;49.248;6.968;2023-12-20T00:54:54;16.52;;;15.13;;
27977;SDS011;15314;49.248;6.968;2023-12-20T00:55:55;17.15;;;15.70;;
27977;SDS011;15314;49.248;6.968;2023-12-20T00:56:55;17.15;;;15.85;;
27977;SDS011;15314;49.248;6.968;2023-12-20T00:57:56;17.15;;;15.65;;
27977;SDS011;15314;49.248;6.968;2023-12-20T00:58:57;15.98;;;14.80;;
27977;SDS011;15314;49.248;6.968;2023-12-20T00:59:57;17.13;;;15.80;;
27977;SDS011;15314;49.248;6.968;2023-12-20T01:00:58;16.67;;;15.27;;
27977;SDS011;15314;49.248;6.968;2023-12-20T01:01:59;16.77;;;15.38;;
27977;SDS011;15314;49.248;6.968;2023-12-20T01:02:59;16.67;;;15.48;;
27977;SDS011;15314;49.248;6.968;2023-12-20T01:04:00;17.17;;;15.80;;
27977;SDS011;15314;49.248;6.968;2023-12-20T01:05:01;16.38;;;15.10;;
27977;SDS011;15314;49.248;6.968;2023-12-20T01:06:02;16.02;;;14.82;;
27977;SDS011;15314;49.248;6.968;2023-12-20T01:07:04;16.55;;;15.35;;
27977;SDS011;15314;49.248;6.968;2023-12-20T01:08:05;15.57;;;14.38;;
27977;SDS011;15314;49.248;6.968;2023-12-20T01:09:06;17.65;;;16.23;;
27977;SDS011;15314;49.248;6.968;2023-12-20T01:10:07;16.10;;;14.88;;
27977;SDS011;15314;49.248;6.968;2023-12-20T01:11:08;16.27;;;15.02;;
27977;SDS011;15314;49.248;6.968;2023-12-20T01:12:08;16.75;;;15.55;;
27977;SDS011;15314;49.248;6.968;2023-12-20T01:13:09;17.17;;;15.77;;
27977;SDS011;15314;49.248;6.968;2023-12-20T01:14:10;16.50;;;15.18;;
27977;SDS011;15314;49.248;6.968;2023-12-20T01:15:10;15.32;;;14.23;;
27977;SDS011;15314;49.248;6.968;2023-12-20T01:16:11;16.58;;;15.30;;
27977;SDS011;15314;49.248;6.968;2023-12-20T01:17:12;17.48;;;16.10;;
27977;SDS011;15314;49.248;6.968;2023-12-20T01:18:13;16.27;;;14.68;;
27977;SDS011;15314;49.248;6.968;2023-12-20T01:19:14;16.88;;;15.48;;
27977;SDS011;15314;49.248;6.968;2023-12-20T01:20:15;15.93;;;14.73;;
27977;SDS011;15314;49.248;6.968;2023-12-20T01:21:15;18.23;;;16.65;;
27977;SDS011;15314;49.248;6.968;2023-12-20T01:22:16;17.13;;;15.77;;
27977;SDS011;15314;49.248;6.968;2023-12-20T01:23:16;16.35;;;15.05;;
27977;SDS011;15314;49.248;6.968;2023-12-20T01:24:17;16.80;;;15.50;;
27977;SDS011;15314;49.248;6.968;2023-12-20T01:25:18;15.20;;;14.20;;
27977;SDS011;15314;49.248;6.968;2023-12-20T01:26:19;16.63;;;15.27;;
27977;SDS011;15314;49.248;6.968;2023-12-20T01:27:19;15.75;;;14.55;;
27977;SDS011;15314;49.248;6.968;2023-12-20T01:28:20;17.15;;;15.85;;
27977;SDS011;15314;49.248;6.968;2023-12-20T01:29:20;15.95;;;14.75;;
27977;SDS011;15314;49.248;6.968;2023-12-20T01:30:21;15.95;;;14.75;;
27977;SDS011;15314;49.248;6.968;2023-12-20T01:31:22;14.70;;;13.70;;
27977;SDS011;15314;49.248;6.968;2023-12-20T01:32:22;14.52;;;13.52;;
27977;SDS011;15314;49.248;6.968;2023-12-20T01:33:23;14.38;;;13.40;;
27977;SDS011;15314;49.248;6.968;2023-12-20T01:34:24;14.88;;;13.80;;
27977;SDS011;15314;49.248;6.968;2023-12-20T01:35:24;15.70;;;14.60;;
27977;SDS011;15314;49.248;6.968;2023-12-20T01:36:25;15.00;;;14.00;;
27977;SDS011;15314;49.248;6.968;2023-12-20T01:37:26;14.25;;;13.30;;
27977;SDS011;15314;49.248;6.968;2023-12-20T01:38:29;14.98;;;13.98;;
27977;SDS011;15314;49.248;6.968;2023-12-20T01:39:29;15.23;;;14.23;;
27977;SDS011;15314;49.248;6.968;2023-12-20T01:40:30;15.35;;;14.15;;
27977;SDS011;15314;49.248;6.968;2023-12-20T01:41:31;14.88;;;13.70;;
27977;SDS011;15314;49.248;6.968;2023-12-20T01:42:31;14.80;;;13.63;;
27977;SDS011;15314;49.248;6.968;2023-12-20T01:43:32;13.77;;;12.88;;
27977;SDS011;15314;49.248;6.968;2023-12-20T01:44:32;13.40;;;12.57;;
27977;SDS011;15314;49.248;6.968;2023-12-20T01:45:33;14.32;;;13.38;;
27977;SDS011;15314;49.248;6.968;2023-12-20T01:46:34;15.23;;;14.20;;
27977;SDS011;15314;49.248;6.968;2023-12-20T01:47:35;15.00;;;13.98;;
27977;SDS011;15314;49.248;6.968;2023-12-20T01:48:36;14.30;;;13.30;;
27977;SDS011;15314;49.248;6.968;2023-12-20T01:49:37;14.40;;;13.40;;
27977;SDS011;15314;49.248;6.968;2023-12-20T01:50:38;13.88;;;13.02;;
27977;SDS011;15314;49.248;6.968;2023-12-20T01:51:40;14.80;;;13.90;;
27977;SDS011;15314;49.248;6.968;2023-12-20T01:52:41;15.40;;;14.30;;
27977;SDS011;15314;49.248;6.968;2023-12-20T01:53:43;14.10;;;13.10;;
27977;SDS011;15314;49.248;6.968;2023-12-20T01:54:44;14.13;;;13.23;;
27977;SDS011;15314;49.248;6.968;2023-12-20T01:55:45;14.18;;;13.30;;
27977;SDS011;15314;49.248;6.968;2023-12-20T01:56:48;14.07;;;13.18;;
27977;SDS011;15314;49.248;6.968;2023-12-20T01:57:50;14.10;;;13.20;;
27977;SDS011;15314;49.248;6.968;2023-12-20T01:58:51;14.10;;;13.20;;
27977;SDS011;15314;49.248;6.968;2023-12-20T01:59:52;14.23;;;13.23;;
27977;SDS011;15314;49.248;6.968;2023-12-20T02:00:53;14.63;;;13.63;;
27977;SDS011;15314;49.248;6.968;2023-12-20T02:01:54;14.52;;;13.30;;
27977;SDS011;15314;49.248;6.968;2023-12-20T02:02:55;14.70;;;13.63;;
27977;SDS011;15314;49.248;6.968;2023-12-20T02:04:00;13.98;;;12.98;;
27977;SDS011;15314;49.248;6.968;2023-12-20T02:05:02;14.52;;;13.55;;
27977;SDS011;15314;49.248;6.968;2023-12-20T02:06:03;14.73;;;13.73;;
27977;SDS011;15314;49.248;6.968;2023-12-20T02:07:05;13.63;;;12.73;;
27977;SDS011;15314;49.248;6.968;2023-12-20T02:08:07;15.52;;;14.27;;
27977;SDS011;15314;49.248;6.968;2023-12-20T02:09:07;15.30;;;14.18;;
27977;SDS011;15314;49.248;6.968;2023-12-20T02:10:08;13.77;;;12.82;;
27977;SDS011;15314;49.248;6.968;2023-12-20T02:11:10;15.25;;;14.15;;
27977;SDS011;15314;49.248;6.968;2023-12-20T02:12:10;14.10;;;13.20;;
27977;SDS011;15314;49.248;6.968;2023-12-20T02:13:11;14.27;;;13.27;;
27977;SDS011;15314;49.248;6.968;2023-12-20T02:14:12;14.98;;;13.98;;
27977;SDS011;15314;49.248;6.968;2023-12-20T02:15:13;14.73;;;13.73;;
27977;SDS011;15314;49.248;6.968;2023-12-20T02:16:14;15.25;;;14.00;;
27977;SDS011;15314;49.248;6.968;2023-12-20T02:17:15;14.73;;;13.60;;
27977;SDS011;15314;49.248;6.968;2023-12-20T02:18:16;15.35;;;14.38;;
27977;SDS011;15314;49.248;6.968;2023-12-20T02:19:17;15.45;;;14.38;;
27977;SDS011;15314;49.248;6.968;2023-12-20T02:20:19;14.85;;;13.82;;
27977;SDS011;15314;49.248;6.968;2023-12-20T02:21:32;16.45;;;15.27;;
27977;SDS011;15314;49.248;6.968;2023-12-20T02:22:36;14.95;;;14.05;;
27977;SDS011;15314;49.248;6.968;2023-12-20T02:23:37;14.60;;;13.52;;
27977;SDS011;15314;49.248;6.968;2023-12-20T02:24:37;15.00;;;14.00;;
27977;SDS011;15314;49.248;6.968;2023-12-20T02:25:38;15.90;;;14.80;;
27977;SDS011;15314;49.248;6.968;2023-12-20T02:26:39;15.43;;;14.23;;
27977;SDS011;15314;49.248;6.968;2023-12-20T02:27:40;14.85;;;13.85;;
27977;SDS011;15314;49.248;6.968;2023-12-20T02:28:41;16.02;;;14.90;;
27977;SDS011;15314;49.248;6.968;2023-12-20T02:29:42;16.63;;;15.35;;
27977;SDS011;15314;49.248;6.968;2023-12-20T02:30:43;16.42;;;15.13;;
27977;SDS011;15314;49.248;6.968;2023-12-20T02:31:43;15.70;;;14.63;;
27977;SDS011;15314;49.248;6.968;2023-12-20T02:32:44;14.75;;;13.75;;
27977;SDS011;15314;49.248;6.968;2023-12-20T02:33:44;15.68;;;14.57;;
27977;SDS011;15314;49.248;6.968;2023-12-20T02:34:47;15.65;;;14.55;;
27977;SDS011;15314;49.248;6.968;2023-12-20T02:35:48;16.27;;;15.07;;
27977;SDS011;15314;49.248;6.968;2023-12-20T02:36:48;15.55;;;14.55;;
27977;SDS011;15314;49.248;6.968;2023-12-20T02:37:49;15.90;;;14.80;;
27977;SDS011;15314;49.248;6.968;2023-12-20T02:38:50;15.38;;;14.25;;
27977;SDS011;15314;49.248;6.968;2023-12-20T02:39:50;14.88;;;13.88;;
27977;SDS011;15314;49.248;6.968;2023-12-20T02:40:51;18.27;;;16.63;;
27977;SDS011;15314;49.248;6.968;2023-12-20T02:41:52;15.60;;;14.57;;
27977;SDS011;15314;49.248;6.968;2023-12-20T02:42:52;15.30;;;14.30;;
27977;SDS011;15314;49.248;6.968;2023-12-20T02:43:53;16.13;;;15.02;;
27977;SDS011;15314;49.248;6.968;2023-12-20T02:44:53;17.80;;;16.40;;
27977;SDS011;15314;49.248;6.968;2023-12-20T02:45:54;16.88;;;15.68;;
27977;SDS011;15314;49.248;6.968;2023-12-20T02:46:54;15.70;;;14.70;;
27977;SDS011;15314;49.248;6.968;2023-12-20T02:47:55;14.95;;;13.95;;
27977;SDS011;15314;49.248;6.968;2023-12-20T02:48:56;16.63;;;15.32;;
27977;SDS011;15314;49.248;6.968;2023-12-20T02:49:56;17.52;;;16.15;;
27977;SDS011;15314;49.248;6.968;2023-12-20T02:50:57;15.23;;;14.15;;
27977;SDS011;15314;49.248;6.968;2023-12-20T02:51:58;14.80;;;13.65;;
27977;SDS011;15314;49.248;6.968;2023-12-20T02:52:58;15.45;;;14.45;;
27977;SDS011;15314;49.248;6.968;2023-12-20T02:53:59;15.43;;;14.32;;
27977;SDS011;15314;49.248;6.968;2023-12-20T02:54:59;16.17;;;15.07;;
27977;SDS011;15314;49.248;6.968;2023-12-20T02:56:00;15.20;;;14.20;;
27977;SDS011;15314;49.248;6.968;2023-12-20T02:57:01;15.27;;;14.18;;
27977;SDS011;15314;49.248;6.968;2023-12-20T02:58:01;15.88;;;14.75;;
27977;SDS011;15314;49.248;6.968;2023-12-20T02:59:02;15.55;;;14.48;;
27977;SDS011;15314;49.248;6.968;2023-12-20T03:00:05;16.77;;;15.57;;
27977;SDS011;15314;49.248;6.968;2023-12-20T03:01:07;16.02;;;14.60;;
27977;SDS011;15314;49.248;6.968;2023-12-20T03:02:08;14.68;;;13.68;;
27977;SDS011;15314;49.248;6.968;2023-12-20T03:03:08;14.75;;;13.77;;
27977;SDS011;15314;49.248;6.968;2023-12-20T03:04:09;16.30;;;15.15;;
27977;SDS011;15314;49.248;6.968;2023-12-20T03:05:10;15.68;;;14.38;;
27977;SDS011;15314;49.248;6.968;2023-12-20T03:06:11;14.70;;;13.70;;
27977;SDS011;15314;49.248;6.968;2023-12-20T03:07:15;15.25;;;14.25;;
27977;SDS011;15314;49.248;6.968;2023-12-20T03:08:16;14.75;;;13.75;;
27977;SDS011;15314;49.248;6.968;2023-12-20T03:09:16;15.57;;;14.50;;
27977;SDS011;15314;49.248;6.968;2023-12-20T03:10:18;14.63;;;13.60;;
27977;SDS011;15314;49.248;6.968;2023-12-20T03:11:19;15.43;;;14.43;;
27977;SDS011;15314;49.248;6.968;2023-12-20T03:12:19;15.30;;;14.30;;
27977;SDS011;15314;49.248;6.968;2023-12-20T03:13:20;14.45;;;13.52;;
27977;SDS011;15314;49.248;6.968;2023-12-20T03:14:20;15.43;;;14.43;;
27977;SDS011;15314;49.248;6.968;2023-12-20T03:15:21;14.60;;;13.70;;
27977;SDS011;15314;49.248;6.968;2023-12-20T03:16:22;14.90;;;14.00;;
27977;SDS011;15314;49.248;6.968;2023-12-20T03:17:23;15.57;;;14.50;;
27977;SDS011;15314;49.248;6.968;2023-12-20T03:18:23;14.77;;;13.85;;
27977;SDS011;15314;49.248;6.968;2023-12-20T03:19:24;13.60;;;12.80;;
27977;SDS011;15314;49.248;6.968;2023-12-20T03:20:25;14.50;;;13.43;;
27977;SDS011;15314;49.248;6.968;2023-12-20T03:21:26;14.85;;;13.85;;
27977;SDS011;15314;49.248;6.968;2023-12-20T03:22:26;14.70;;;13.80;;
27977;SDS011;15314;49.248;6.968;2023-12-20T03:23:27;15.20;;;14.20;;
27977;SDS011;15314;49.248;6.968;2023-12-20T03:24:30;14.98;;;13.98;;
27977;SDS011;15314;49.248;6.968;2023-12-20T03:25:31;16.55;;;15.18;;
27977;SDS011;15314;49.248;6.968;2023-12-20T03:26:31;15.70;;;14.70;;
27977;SDS011;15314;49.248;6.968;2023-12-20T03:27:32;14.43;;;13.52;;
27977;SDS011;15314;49.248;6.968;2023-12-20T03:28:33;14.45;;;13.45;;
27977;SDS011;15314;49.248;6.968;2023-12-20T03:29:34;15.10;;;14.20;;
27977;SDS011;15314;49.248;6.968;2023-12-20T03:30:34;13.75;;;12.90;;
27977;SDS011;15314;49.248;6.968;2023-12-20T03:31:35;14.65;;;13.65;;
27977;SDS011;15314;49.248;6.968;2023-12-20T03:32:36;14.73;;;13.77;;
27977;SDS011;15314;49.248;6.968;2023-12-20T03:33:38;14.65;;;13.65;;
27977;SDS011;15314;49.248;6.968;2023-12-20T03:34:39;14.07;;;12.95;;
27977;SDS011;15314;49.248;6.968;2023-12-20T03:35:39;15.07;;;14.00;;
27977;SDS011;15314;49.248;6.968;2023-12-20T03:36:40;14.02;;;13.13;;
27977;SDS011;15314;49.248;6.968;2023-12-20T03:37:41;14.07;;;13.18;;
27977;SDS011;15314;49.248;6.968;2023-12-20T03:38:41;13.63;;;12.82;;
27977;SDS011;15314;49.248;6.968;2023-12-20T03:39:42;13.75;;;12.95;;
27977;SDS011;15314;49.248;6.968;2023-12-20T03:40:42;13.73;;;12.82;;
27977;SDS011;15314;49.248;6.968;2023-12-20T03:41:43;14.00;;;13.10;;
27977;SDS011;15314;49.248;6.968;2023-12-20T03:42:44;14.45;;;13.48;;
27977;SDS011;15314;49.248;6.968;2023-12-20T03:43:44;14.07;;;13.15;;
27977;SDS011;15314;49.248;6.968;2023-12-20T03:44:45;14.05;;;13.15;;
27977;SDS011;15314;49.248;6.968;2023-12-20T03:45:46;13.93;;;13.02;;
27977;SDS011;15314;49.248;6.968;2023-12-20T03:46:46;15.18;;;14.18;;
27977;SDS011;15314;49.248;6.968;2023-12-20T03:47:49;14.00;;;13.05;;
27977;SDS011;15314;49.248;6.968;2023-12-20T03:48:49;13.90;;;13.10;;
27977;SDS011;15314;49.248;6.968;2023-12-20T03:49:50;15.75;;;14.75;;
27977;SDS011;15314;49.248;6.968;2023-12-20T03:50:51;14.82;;;13.82;;
27977;SDS011;15314;49.248;6.968;2023-12-20T03:51:51;14.48;;;13.30;;
27977;SDS011;15314;49.248;6.968;2023-12-20T03:52:52;15.05;;;14.10;;
27977;SDS011;15314;49.248;6.968;2023-12-20T03:53:53;14.55;;;13.57;;
27977;SDS011;15314;49.248;6.968;2023-12-20T03:54:53;14.40;;;13.50;;
27977;SDS011;15314;49.248;6.968;2023-12-20T03:55:54;14.98;;;13.95;;
27977;SDS011;15314;49.248;6.968;2023-12-20T03:56:54;14.55;;;13.65;;
27977;SDS011;15314;49.248;6.968;2023-12-20T03:57:55;14.35;;;13.38;;
27977;SDS011;15314;49.248;6.968;2023-12-20T03:58:56;13.73;;;12.90;;
27977;SDS011;15314;49.248;6.968;2023-12-20T03:59:56;14.63;;;13.63;;
27977;SDS011;15314;49.248;6.968;2023-12-20T04:00:57;15.13;;;14.18;;
27977;SDS011;15314;49.248;6.968;2023-12-20T04:01:57;14.80;;;13.77;;
27977;SDS011;15314;49.248;6.968;2023-12-20T04:02:58;15.35;;;14.38;;
27977;SDS011;15314;49.248;6.968;2023-12-20T04:03:58;13.95;;;13.13;;
27977;SDS011;15314;49.248;6.968;2023-12-20T04:04:59;14.82;;;13.82;;
27977;SDS011;15314;49.248;6.968;2023-12-20T04:06:00;15.60;;;14.45;;
27977;SDS011;15314;49.248;6.968;2023-12-20T04:07:00;14.40;;;13.48;;
27977;SDS011;15314;49.248;6.968;2023-12-20T04:08:01;15.32;;;14.30;;
27977;SDS011;15314;49.248;6.968;2023-12-20T04:09:03;14.40;;;13.52;;
27977;SDS011;15314;49.248;6.968;2023-12-20T04:10:04;14.88;;;13.73;;
27977;SDS011;15314;49.248;6.968;2023-12-20T04:11:05;15.68;;;14.57;;
27977;SDS011;15314;49.248;6.968;2023-12-20T04:12:06;15.60;;;14.60;;
27977;SDS011;15314;49.248;6.968;2023-12-20T04:13:07;14.93;;;13.93;;
27977;SDS011;15314;49.248;6.968;2023-12-20T04:14:07;14.93;;;13.82;;
27977;SDS011;15314;49.248;6.968;2023-12-20T04:15:08;15.73;;;14.63;;
27977;SDS011;15314;49.248;6.968;2023-12-20T04:16:10;15.10;;;14.15;;
27977;SDS011;15314;49.248;6.968;2023-12-20T04:17:10;15.43;;;14.27;;
27977;SDS011;15314;49.248;6.968;2023-12-20T04:18:11;15.93;;;14.85;;
27977;SDS011;15314;49.248;6.968;2023-12-20T04:19:12;15.57;;;14.57;;
27977;SDS011;15314;49.248;6.968;2023-12-20T04:20:12;16.00;;;14.88;;
27977;SDS011;15314;49.248;6.968;2023-12-20T04:21:13;16.45;;;15.10;;
27977;SDS011;15314;49.248;6.968;2023-12-20T04:22:13;14.98;;;13.98;;
27977;SDS011;15314;49.248;6.968;2023-12-20T04:23:14;15.65;;;14.65;;
27977;SDS011;15314;49.248;6.968;2023-12-20T04:24:15;15.52;;;14.50;;
27977;SDS011;15314;49.248;6.968;2023-12-20T04:25:15;15.45;;;14.45;;
27977;SDS011;15314;49.248;6.968;2023-12-20T04:26:16;14.20;;;13.20;;
27977;SDS011;15314;49.248;6.968;2023-12-20T04:27:16;16.08;;;14.98;;
27977;SDS011;15314;49.248;6.968;2023-12-20T04:28:17;15.00;;;13.90;;
27977;SDS011;15314;49.248;6.968;2023-12-20T04:29:18;13.82;;;13.02;;
27977;SDS011;15314;49.248;6.968;2023-12-20T04:30:18;14.93;;;14.02;;
27977;SDS011;15314;49.248;6.968;2023-12-20T04:31:19;14.77;;;13.88;;
27977;SDS011;15314;49.248;6.968;2023-12-20T04:32:19;15.88;;;14.77;;
27977;SDS011;15314;49.248;6.968;2023-12-20T04:33:20;15.48;;;14.38;;
27977;SDS011;15314;49.248;6.968;2023-12-20T04:34:21;14.48;;;13.52;;
27977;SDS011;15314;49.248;6.968;2023-12-20T04:35:23;12.52;;;11.82;;
27977;SDS011;15314;49.248;6.968;2023-12-20T04:36:23;13.32;;;12.52;;
27977;SDS011;15314;49.248;6.968;2023-12-20T04:37:26;12.95;;;12.15;;
27977;SDS011;15314;49.248;6.968;2023-12-20T04:38:27;12.48;;;11.73;;
27977;SDS011;15314;49.248;6.968;2023-12-20T04:39:27;11.73;;;11.05;;
27977;SDS011;15314;49.248;6.968;2023-12-20T04:40:29;12.18;;;11.48;;
27977;SDS011;15314;49.248;6.968;2023-12-20T04:41:29;12.10;;;11.40;;
27977;SDS011;15314;49.248;6.968;2023-12-20T04:42:30;11.85;;;11.05;;
27977;SDS011;15314;49.248;6.968;2023-12-20T04:43:30;11.95;;;11.25;;
27977;SDS011;15314;49.248;6.968;2023-12-20T04:44:31;12.02;;;11.27;;
27977;SDS011;15314;49.248;6.968;2023-12-20T04:45:32;11.77;;;11.18;;
27977;SDS011;15314;49.248;6.968;2023-12-20T04:46:32;12.13;;;11.40;;
27977;SDS011;15314;49.248;6.968;2023-12-20T04:47:33;12.50;;;11.45;;
27977;SDS011;15314;49.248;6.968;2023-12-20T04:48:33;12.07;;;10.98;;
27977;SDS011;15314;49.248;6.968;2023-12-20T04:49:34;12.18;;;11.25;;
27977;SDS011;15314;49.248;6.968;2023-12-20T04:50:35;12.48;;;11.77;;
27977;SDS011;15314;49.248;6.968;2023-12-20T04:51:35;11.98;;;11.27;;
27977;SDS011;15314;49.248;6.968;2023-12-20T04:52:36;12.60;;;11.80;;
27977;SDS011;15314;49.248;6.968;2023-12-20T04:53:36;11.63;;;10.52;;
27977;SDS011;15314;49.248;6.968;2023-12-20T04:54:37;12.13;;;11.43;;
27977;SDS011;15314;49.248;6.968;2023-12-20T04:55:38;11.88;;;11.00;;
27977;SDS011;15314;49.248;6.968;2023-12-20T04:56:39;12.15;;;11.30;;
27977;SDS011;15314;49.248;6.968;2023-12-20T04:57:39;11.90;;;11.10;;
27977;SDS011;15314;49.248;6.968;2023-12-20T04:58:40;11.50;;;10.75;;
27977;SDS011;15314;49.248;6.968;2023-12-20T04:59:42;11.55;;;10.57;;
27977;SDS011;15314;49.248;6.968;2023-12-20T05:00:42;11.15;;;10.25;;
27977;SDS011;15314;49.248;6.968;2023-12-20T05:01:43;11.50;;;10.50;;
27977;SDS011;15314;49.248;6.968;2023-12-20T05:02:44;11.10;;;10.18;;
27977;SDS011;15314;49.248;6.968;2023-12-20T05:03:44;11.43;;;10.60;;
27977;SDS011;15314;49.248;6.968;2023-12-20T05:04:45;13.23;;;10.52;;
27977;SDS011;15314;49.248;6.968;2023-12-20T05:05:46;11.50;;;10.55;;
27977;SDS011;15314;49.248;6.968;2023-12-20T05:06:46;11.45;;;10.25;;
27977;SDS011;15314;49.248;6.968;2023-12-20T05:07:47;11.15;;;10.23;;
27977;SDS011;15314;49.248;6.968;2023-12-20T05:08:48;11.25;;;9.80;;
27977;SDS011;15314;49.248;6.968;2023-12-20T05:09:48;10.73;;;9.77;;
27977;SDS011;15314;49.248;6.968;2023-12-20T05:10:49;10.55;;;9.80;;
27977;SDS011;15314;49.248;6.968;2023-12-20T05:11:49;15.95;;;10.27;;
27977;SDS011;15314;49.248;6.968;2023-12-20T05:12:50;10.80;;;10.00;;
27977;SDS011;15314;49.248;6.968;2023-12-20T05:13:51;10.98;;;9.90;;
27977;SDS011;15314;49.248;6.968;2023-12-20T05:14:51;10.98;;;9.88;;
27977;SDS011;15314;49.248;6.968;2023-12-20T05:15:52;11.20;;;10.30;;
27977;SDS011;15314;49.248;6.968;2023-12-20T05:16:53;11.00;;;10.20;;
27977;SDS011;15314;49.248;6.968;2023-12-20T05:17:53;9.90;;;9.13;;
27977;SDS011;15314;49.248;6.968;2023-12-20T05:18:54;10.00;;;9.05;;
27977;SDS011;15314;49.248;6.968;2023-12-20T05:19:54;10.32;;;9.10;;
27977;SDS011;15314;49.248;6.968;2023-12-20T05:20:55;11.40;;;9.82;;
27977;SDS011;15314;49.248;6.968;2023-12-20T05:21:55;10.52;;;9.43;;
27977;SDS011;15314;49.248;6.968;2023-12-20T05:22:56;11.52;;;10.57;;
27977;SDS011;15314;49.248;6.968;2023-12-20T05:23:57;11.27;;;10.13;;
27977;SDS011;15314;49.248;6.968;2023-12-20T05:24:57;10.73;;;9.98;;
27977;SDS011;15314;49.248;6.968;2023-12-20T05:25:58;10.75;;;9.65;;
27977;SDS011;15314;49.248;6.968;2023-12-20T05:26:59;10.93;;;10.00;;
27977;SDS011;15314;49.248;6.968;2023-12-20T05:28:00;11.40;;;10.40;;
27977;SDS011;15314;49.248;6.968;2023-12-20T05:29:00;12.48;;;11.27;;
27977;SDS011;15314;49.248;6.968;2023-12-20T05:30:01;11.27;;;9.75;;
27977;SDS011;15314;49.248;6.968;2023-12-20T05:31:02;11.13;;;10.05;;
27977;SDS011;15314;49.248;6.968;2023-12-20T05:32:03;11.10;;;9.90;;
27977;SDS011;15314;49.248;6.968;2023-12-20T05:33:07;9.43;;;8.70;;
27977;SDS011;15314;49.248;6.968;2023-12-20T05:34:08;10.40;;;9.27;;
27977;SDS011;15314;49.248;6.968;2023-12-20T05:35:08;10.50;;;9.70;;
27977;SDS011;15314;49.248;6.968;2023-12-20T05:36:09;11.45;;;9.35;;
27977;SDS011;15314;49.248;6.968;2023-12-20T05:37:11;11.15;;;9.93;;
27977;SDS011;15314;49.248;6.968;2023-12-20T05:38:12;10.77;;;9.88;;
27977;SDS011;15314;49.248;6.968;2023-12-20T05:39:15;11.40;;;10.20;;
27977;SDS011;15314;49.248;6.968;2023-12-20T05:40:16;10.18;;;9.25;;
27977;SDS011;15314;49.248;6.968;2023-12-20T05:41:16;10.43;;;9.52;;
27977;SDS011;15314;49.248;6.968;2023-12-20T05:42:17;13.30;;;10.13;;
27977;SDS011;15314;49.248;6.968;2023-12-20T05:43:18;11.38;;;10.30;;
27977;SDS011;15314;49.248;6.968;2023-12-20T05:44:19;13.45;;;10.60;;
27977;SDS011;15314;49.248;6.968;2023-12-20T05:45:20;14.63;;;10.68;;
27977;SDS011;15314;49.248;6.968;2023-12-20T05:46:21;13.23;;;11.73;;
27977;SDS011;15314;49.248;6.968;2023-12-20T05:47:21;11.55;;;10.48;;
27977;SDS011;15314;49.248;6.968;2023-12-20T05:48:22;13.65;;;12.40;;
27977;SDS011;15314;49.248;6.968;2023-12-20T05:49:23;12.48;;;11.25;;
27977;SDS011;15314;49.248;6.968;2023-12-20T05:50:23;12.82;;;11.20;;
27977;SDS011;15314;49.248;6.968;2023-12-20T05:51:24;12.35;;;11.10;;
27977;SDS011;15314;49.248;6.968;2023-12-20T05:52:24;12.82;;;10.25;;
27977;SDS011;15314;49.248;6.968;2023-12-20T05:53:25;13.35;;;10.55;;
27977;SDS011;15314;49.248;6.968;2023-12-20T05:54:26;11.40;;;10.40;;
27977;SDS011;15314;49.248;6.968;2023-12-20T05:55:26;11.55;;;10.48;;
27977;SDS011;15314;49.248;6.968;2023-12-20T05:56:27;11.13;;;10.10;;